createdAt,value
2018-04-12T00:02:13.857Z,58.28
2018-04-12T00:05:17.035Z,58.61
2018-04-12T00:08:20.425Z,59.08
2018-04-12T00:11:23.593Z,57.62
2018-04-12T00:14:26.941Z,58.10
2018-04-12T00:17:30.313Z,59.03
2018-04-12T00:20:33.615Z,59.11
2018-04-12T00:23:36.920Z,59.61
2018-04-12T00:26:40.136Z,59.20
2018-04-12T00:29:43.550Z,59.56
2018-04-12T00:32:46.817Z,59.42
2018-04-12T00:35:50.308Z,59.86
2018-04-12T00:38:53.920Z,59.94
2018-04-12T00:41:57.423Z,60.21
2018-04-12T00:45:00.722Z,60.55
2018-04-12T00:48:04.320Z,60.76
2018-04-12T00:51:07.514Z,61.44
2018-04-12T00:54:10.834Z,60.96
2018-04-12T00:57:14.213Z,62.32
2018-04-12T01:00:17.514Z,62.45
2018-04-12T01:03:20.800Z,61.25
2018-04-12T01:06:24.223Z,62.46
2018-04-12T01:09:27.445Z,63.65
2018-04-12T01:12:30.588Z,63.47
2018-04-12T01:15:33.949Z,63.18
2018-04-12T01:18:37.287Z,62.54
2018-04-12T01:21:40.512Z,63.82
2018-04-12T01:24:43.703Z,64.44
2018-04-12T01:27:47.005Z,65.00
2018-04-12T01:30:50.297Z,64.54
2018-04-12T01:33:53.565Z,63.76
2018-04-12T01:36:56.687Z,64.98
2018-04-12T01:39:59.984Z,65.30
2018-04-12T01:43:03.271Z,64.43
2018-04-12T01:46:06.583Z,65.77
2018-04-12T01:49:09.892Z,65.17
2018-04-12T01:52:13.147Z,66.74
2018-04-12T01:55:16.376Z,66.95
2018-04-12T01:58:19.651Z,66.97
2018-04-12T02:01:22.944Z,67.74
2018-04-12T02:04:26.353Z,68.31
2018-04-12T02:07:29.587Z,68.66
2018-04-12T02:10:32.835Z,69.13
2018-04-12T02:13:36.232Z,68.72
2018-04-12T02:16:39.565Z,69.06
2018-04-12T02:19:42.840Z,69.27
2018-04-12T02:22:46.182Z,68.84
2018-04-12T02:25:49.604Z,70.37
2018-04-12T02:28:52.961Z,69.40
2018-04-12T02:31:56.164Z,70.46
2018-04-12T02:34:59.550Z,70.55
2018-04-12T02:38:02.757Z,71.01
2018-04-12T02:41:06.017Z,71.00
2018-04-12T02:44:09.317Z,71.97
2018-04-12T02:47:12.548Z,72.37
2018-04-12T02:50:15.829Z,71.74
2018-04-12T02:53:19.145Z,72.50
2018-04-12T02:56:22.498Z,72.81
2018-04-12T02:59:25.809Z,72.75
2018-04-12T03:02:29.135Z,72.28
2018-04-12T03:05:32.507Z,72.03
2018-04-12T03:08:35.792Z,72.07
2018-04-12T03:11:39.206Z,70.45
2018-04-12T03:14:42.487Z,72.20
2018-04-12T03:17:45.708Z,72.41
2018-04-12T03:20:48.983Z,72.67
2018-04-12T03:23:52.220Z,72.68
2018-04-12T03:26:56.736Z,72.34
2018-04-12T03:30:00.009Z,72.89
2018-04-12T03:33:03.192Z,72.97
2018-04-12T03:36:06.648Z,72.85
2018-04-12T03:39:09.885Z,72.07
2018-04-12T03:42:13.076Z,72.19
2018-04-12T03:45:16.175Z,71.79
2018-04-12T03:48:19.739Z,72.32
2018-04-12T03:51:23.089Z,73.19
2018-04-12T03:54:26.494Z,73.03
2018-04-12T03:57:29.716Z,72.88
2018-04-12T04:00:33.077Z,73.27
2018-04-12T04:03:36.374Z,73.56
2018-04-12T04:06:39.599Z,72.51
2018-04-12T04:09:42.865Z,73.23
2018-04-12T04:12:46.152Z,73.25
2018-04-12T04:16:00.915Z,74.50
2018-04-12T04:20:13.370Z,74.38
2018-04-12T04:23:16.704Z,74.80
2018-04-12T04:26:19.956Z,75.13
2018-04-12T04:29:23.257Z,75.29
2018-04-12T04:32:27.584Z,75.67
2018-04-12T04:35:30.703Z,76.17
2018-04-12T04:38:33.965Z,75.94
2018-04-12T04:41:37.200Z,76.22
2018-04-12T04:44:40.581Z,76.02
2018-04-12T04:47:43.830Z,75.69
2018-04-12T04:50:47.151Z,76.12
2018-04-12T04:53:50.434Z,76.63
2018-04-12T04:56:53.668Z,74.75
2018-04-12T04:59:57.129Z,75.11
2018-04-12T05:03:00.428Z,76.37
2018-04-12T05:06:03.740Z,76.07
2018-04-12T05:09:07.157Z,75.97
2018-04-12T05:12:10.619Z,75.75
2018-04-12T05:15:13.932Z,77.18
2018-04-12T05:18:17.361Z,77.13
2018-04-12T05:21:20.769Z,77.65
2018-04-12T05:24:24.015Z,77.31
2018-04-12T05:27:27.784Z,76.02
2018-04-12T05:30:31.176Z,75.68
2018-04-12T05:33:34.457Z,76.71
2018-04-12T05:36:37.761Z,76.37
2018-04-12T05:39:41.182Z,76.46
2018-04-12T05:42:44.561Z,76.20
2018-04-12T05:45:47.851Z,76.29
2018-04-12T05:48:51.270Z,76.05
2018-04-12T05:51:54.687Z,75.98
2018-04-12T05:54:57.914Z,74.77
2018-04-12T05:58:01.250Z,74.31
2018-04-12T06:01:04.486Z,75.32
2018-04-12T06:04:07.793Z,74.42
2018-04-12T06:07:11.163Z,75.69
2018-04-12T06:10:14.516Z,75.10
2018-04-12T06:13:17.828Z,74.93
2018-04-12T06:16:21.196Z,73.67
2018-04-12T06:19:24.508Z,73.74
2018-04-12T06:22:27.777Z,73.38
2018-04-12T06:25:30.990Z,72.73
2018-04-12T06:28:34.297Z,71.38
2018-04-12T06:31:37.581Z,68.34
2018-04-12T06:34:40.786Z,66.54
2018-04-12T06:37:44.058Z,65.37
2018-04-12T06:40:47.421Z,64.43
2018-04-12T06:43:50.715Z,64.18
2018-04-12T06:46:54.419Z,63.73
2018-04-12T06:49:57.578Z,63.20
2018-04-12T06:53:00.852Z,61.75
2018-04-12T06:56:04.210Z,61.16
2018-04-12T06:59:07.496Z,60.39
2018-04-12T07:02:10.648Z,60.37
2018-04-12T07:05:14.103Z,60.18
2018-04-12T07:08:17.477Z,60.22
2018-04-12T07:11:20.668Z,59.60
2018-04-12T07:14:23.980Z,59.53
2018-04-12T07:17:27.393Z,59.32
2018-04-12T07:20:30.709Z,59.06
2018-04-12T07:23:34.000Z,58.57
2018-04-12T07:26:37.390Z,58.04
2018-04-12T07:29:41.693Z,57.52
2018-04-12T07:32:45.005Z,56.45
2018-04-12T07:35:48.192Z,56.49
2018-04-12T07:38:51.484Z,56.13
2018-04-12T07:41:54.789Z,55.16
2018-04-12T07:44:58.146Z,56.16
2018-04-12T07:48:01.446Z,54.49
2018-04-12T07:51:04.890Z,54.24
2018-04-12T07:54:08.427Z,53.12
2018-04-12T07:57:11.756Z,53.24
2018-04-12T08:00:15.083Z,52.48
2018-04-12T08:03:18.428Z,52.47
2018-04-12T08:06:21.848Z,51.96
2018-04-12T08:09:25.274Z,51.83
2018-04-12T08:12:28.829Z,51.63
2018-04-12T08:15:32.189Z,52.07
2018-04-12T08:18:35.610Z,53.37
2018-04-12T08:21:38.874Z,51.06
2018-04-12T08:24:42.278Z,51.13
2018-04-12T08:27:45.585Z,50.12
2018-04-12T08:30:48.888Z,50.08
2018-04-12T08:33:52.288Z,48.71
2018-04-12T08:36:55.702Z,47.87
2018-04-12T08:39:58.966Z,46.67
2018-04-12T08:43:02.434Z,47.23
2018-04-12T08:46:05.777Z,45.33
2018-04-12T08:49:09.069Z,45.96
2018-04-12T08:52:12.412Z,46.01
2018-04-12T08:55:15.732Z,45.58
2018-04-12T08:58:19.172Z,45.64
2018-04-12T09:01:22.535Z,43.41
2018-04-12T09:04:25.776Z,44.27
2018-04-12T09:07:29.017Z,44.23
2018-04-12T09:10:32.361Z,44.77
2018-04-12T09:13:35.732Z,44.58
2018-04-12T09:16:38.977Z,44.80
2018-04-12T09:19:42.256Z,45.34
2018-04-12T09:22:45.629Z,44.63
2018-04-12T09:25:48.955Z,45.21
2018-04-12T09:28:52.265Z,45.80
2018-04-12T09:31:55.762Z,45.85
2018-04-12T09:34:59.026Z,46.28
2018-04-12T09:38:02.266Z,46.20
2018-04-12T09:41:05.636Z,45.45
2018-04-12T09:44:08.942Z,45.35
2018-04-12T09:47:12.246Z,46.34
2018-04-12T09:50:15.429Z,46.42
2018-04-12T09:53:18.740Z,45.98
2018-04-12T09:56:22.026Z,46.63
2018-04-12T09:59:25.424Z,45.30
2018-04-12T10:02:28.868Z,46.30
2018-04-12T10:05:32.225Z,46.37
2018-04-12T10:08:39.482Z,45.81
2018-04-12T10:11:42.842Z,47.37
2018-04-12T10:14:46.205Z,46.93
2018-04-12T10:17:49.524Z,47.52
2018-04-12T10:20:52.913Z,47.59
2018-04-12T10:23:57.028Z,47.80
2018-04-12T10:27:00.269Z,49.45
2018-04-12T10:30:03.720Z,46.32
2018-04-12T10:33:06.923Z,44.88
2018-04-12T10:36:10.228Z,44.46
2018-04-12T10:39:13.618Z,45.36
2018-04-12T10:42:17.003Z,46.19
2018-04-12T10:45:20.261Z,45.88
2018-04-12T10:48:23.475Z,43.87
2018-04-12T10:51:26.655Z,42.15
2018-04-12T10:54:29.967Z,42.55
2018-04-12T10:57:33.452Z,43.16
2018-04-12T11:00:36.815Z,44.49
2018-04-12T11:03:40.063Z,44.59
2018-04-12T11:06:43.391Z,45.12
2018-04-12T11:09:46.798Z,44.52
2018-04-12T11:12:50.092Z,45.22
2018-04-12T11:15:54.400Z,45.17
2018-04-12T11:18:57.703Z,46.21
2018-04-12T11:22:00.975Z,46.11
2018-04-12T11:25:04.956Z,46.46
2018-04-12T11:28:08.190Z,45.80
2018-04-12T11:31:11.507Z,45.65
2018-04-12T11:34:14.829Z,44.75
2018-04-12T11:37:18.204Z,44.32
2018-04-12T11:40:21.535Z,43.55
2018-04-12T11:43:25.829Z,41.70
2018-04-12T11:46:29.260Z,42.10
2018-04-12T11:49:32.639Z,41.82
2018-04-12T11:52:36.325Z,41.94
2018-04-12T11:55:39.655Z,40.63
2018-04-12T11:58:43.013Z,40.73
2018-04-12T12:01:46.318Z,41.20
2018-04-12T12:04:49.576Z,41.39
2018-04-12T12:07:52.856Z,40.69
2018-04-12T12:10:56.225Z,41.66
2018-04-12T12:13:59.511Z,40.04
2018-04-12T12:17:02.783Z,39.86
2018-04-12T12:20:06.077Z,40.52
2018-04-12T12:23:09.413Z,40.48
2018-04-12T12:26:12.812Z,39.61
2018-04-12T12:29:15.957Z,40.53
2018-04-12T12:32:19.495Z,40.44
2018-04-12T12:35:23.256Z,40.95
2018-04-12T12:38:26.595Z,38.97
2018-04-12T12:41:30.046Z,39.23
2018-04-12T12:44:33.588Z,39.82
2018-04-12T12:47:36.905Z,39.93
2018-04-12T12:50:40.704Z,40.38
2018-04-12T12:53:44.106Z,40.17
2018-04-12T12:56:47.417Z,40.74
2018-04-12T12:59:50.788Z,41.24
2018-04-12T13:02:54.192Z,40.51
2018-04-12T13:05:57.638Z,41.09
2018-04-12T13:09:00.914Z,40.29
2018-04-12T13:12:04.245Z,40.12
2018-04-12T13:15:07.530Z,40.42
2018-04-12T13:18:10.712Z,41.12
2018-04-12T13:21:13.937Z,41.41
2018-04-12T13:24:17.132Z,40.81
2018-04-12T13:27:20.528Z,40.84
2018-04-12T13:30:24.010Z,41.56
2018-04-12T13:33:27.411Z,41.12
2018-04-12T13:36:30.540Z,40.54
2018-04-12T13:39:33.913Z,40.00
2018-04-12T13:42:37.374Z,40.83
2018-04-12T13:45:40.697Z,40.86
2018-04-12T13:48:44.059Z,41.28
2018-04-12T13:51:47.291Z,40.88
2018-04-12T13:54:50.755Z,40.87
2018-04-12T13:57:53.968Z,41.88
2018-04-12T14:00:57.272Z,41.90
2018-04-12T14:04:00.600Z,41.89
2018-04-12T14:07:04.139Z,40.81
2018-04-12T14:10:07.415Z,41.26
2018-04-12T14:13:10.752Z,40.62
2018-04-12T14:16:14.068Z,41.49
2018-04-12T14:19:17.623Z,40.07
2018-04-12T14:22:20.897Z,40.25
2018-04-12T14:25:24.245Z,39.88
2018-04-12T14:28:27.560Z,40.15
2018-04-12T14:31:31.329Z,39.42
2018-04-12T14:34:34.664Z,39.99
2018-04-12T14:37:37.867Z,40.18
2018-04-12T14:40:41.189Z,39.96
2018-04-12T14:43:44.312Z,39.55
2018-04-12T14:46:47.657Z,40.38
2018-04-12T14:49:51.038Z,39.93
2018-04-12T14:52:54.373Z,40.50
2018-04-12T14:55:57.582Z,40.65
2018-04-12T14:59:00.765Z,41.21
2018-04-12T15:02:04.996Z,40.78
2018-04-12T15:05:08.340Z,40.74
2018-04-12T15:08:11.539Z,41.48
2018-04-12T15:11:14.841Z,40.34
2018-04-12T15:14:18.251Z,39.71
2018-04-12T15:17:21.413Z,39.66
2018-04-12T15:20:24.710Z,40.03
2018-04-12T15:23:28.078Z,38.82
2018-04-12T15:26:31.399Z,39.00
2018-04-12T15:29:34.673Z,38.21
2018-04-12T15:32:38.630Z,37.62
2018-04-12T15:35:41.944Z,36.28
2018-04-12T15:38:45.343Z,37.08
2018-04-12T15:41:48.641Z,35.54
2018-04-12T15:44:51.912Z,34.80
2018-04-12T15:47:55.331Z,36.11
2018-04-12T15:50:58.547Z,35.67
2018-04-12T15:54:01.731Z,34.90
2018-04-12T15:57:05.101Z,33.81
2018-04-12T16:00:08.257Z,36.39
2018-04-12T16:03:11.445Z,35.78
2018-04-12T16:06:14.632Z,33.52
2018-04-12T16:09:17.995Z,32.86
2018-04-12T16:12:21.322Z,34.11
2018-04-12T16:15:24.585Z,34.94
2018-04-12T16:18:27.803Z,35.01
2018-04-12T16:21:30.998Z,35.85
2018-04-12T16:24:34.283Z,36.16
2018-04-12T16:27:37.720Z,37.52
2018-04-12T16:30:41.044Z,37.83
2018-04-12T16:33:44.512Z,38.32
2018-04-12T16:36:47.706Z,38.55
2018-04-12T16:39:51.108Z,38.46
2018-04-12T16:42:54.411Z,38.97
2018-04-12T16:45:57.807Z,39.40
2018-04-12T16:49:01.196Z,39.31
2018-04-12T16:52:04.449Z,39.33
2018-04-12T16:55:07.788Z,39.34
2018-04-12T16:58:11.193Z,39.92
2018-04-12T17:01:14.491Z,39.83
2018-04-12T17:04:17.834Z,39.92
2018-04-12T17:07:21.143Z,39.25
2018-04-12T17:10:24.509Z,39.39
2018-04-12T17:13:27.767Z,39.91
2018-04-12T17:16:31.177Z,40.00
2018-04-12T17:19:34.474Z,40.07
2018-04-12T17:22:37.765Z,40.67
2018-04-12T17:25:41.170Z,41.05
2018-04-12T17:28:44.466Z,41.68
2018-04-12T17:31:47.795Z,42.17
2018-04-12T17:34:51.092Z,42.16
2018-04-12T17:37:54.433Z,42.68
2018-04-12T17:40:57.736Z,42.89
2018-04-12T17:44:01.009Z,43.29
2018-04-12T17:47:04.366Z,43.42
2018-04-12T17:50:07.552Z,43.39
2018-04-12T17:53:10.859Z,44.10
2018-04-12T17:56:14.760Z,44.66
2018-04-12T17:59:18.087Z,45.66
2018-04-12T18:02:21.399Z,45.68
2018-04-12T18:05:24.874Z,45.88
2018-04-12T18:08:28.193Z,46.76
2018-04-12T18:11:32.562Z,47.20
2018-04-12T18:14:35.887Z,47.44
2018-04-12T18:17:39.567Z,47.96
2018-04-12T18:20:43.038Z,47.85
2018-04-12T18:23:46.253Z,48.01
2018-04-12T18:26:49.602Z,48.49
2018-04-12T18:29:52.919Z,49.30
2018-04-12T18:32:56.294Z,50.11
2018-04-12T18:35:59.578Z,50.07
2018-04-12T18:39:03.005Z,49.89
2018-04-12T18:42:06.315Z,50.01
2018-04-12T18:45:09.962Z,49.81
2018-04-12T18:48:13.406Z,49.64
2018-04-12T18:51:18.119Z,50.48
2018-04-12T18:54:21.522Z,51.67
2018-04-12T18:57:24.793Z,52.05
2018-04-12T19:00:28.186Z,51.95
2018-04-12T19:03:31.659Z,52.46
2018-04-12T19:06:35.195Z,52.58
2018-04-12T19:09:38.514Z,51.87
2018-04-12T19:12:41.939Z,51.54
2018-04-12T19:15:45.377Z,51.60
2018-04-12T19:18:48.730Z,51.48
2018-04-12T19:21:53.154Z,51.96
2018-04-12T19:24:56.571Z,52.65
2018-04-12T19:27:59.922Z,52.76
2018-04-12T19:31:03.522Z,52.42
2018-04-12T19:34:07.973Z,53.35
2018-04-12T19:37:11.183Z,54.02
2018-04-12T19:40:14.628Z,54.32
2018-04-12T19:43:18.048Z,54.80
2018-04-12T19:46:21.477Z,55.93
2018-04-12T19:49:24.819Z,57.13
2018-04-12T19:52:28.029Z,58.26
2018-04-12T19:55:32.094Z,58.64
2018-04-12T19:58:36.770Z,58.03
2018-04-12T20:01:41.531Z,58.44
2018-04-12T20:04:45.865Z,57.74
2018-04-12T20:07:50.988Z,57.91
2018-04-12T20:10:55.312Z,58.95
2018-04-12T20:14:00.299Z,59.38
2018-04-12T20:17:04.992Z,59.43
2018-04-12T20:20:08.520Z,59.54
2018-04-12T20:23:11.868Z,59.84
2018-04-12T20:26:15.319Z,59.91
2018-04-12T20:29:18.797Z,59.01
2018-04-12T20:32:22.256Z,58.09
2018-04-12T20:35:25.578Z,57.60
2018-04-12T20:38:28.792Z,57.34
2018-04-12T20:41:32.160Z,57.11
2018-04-12T20:44:35.472Z,56.48
2018-04-12T20:47:38.676Z,56.59
2018-04-12T20:50:41.832Z,56.49
2018-04-12T20:53:45.140Z,55.65
2018-04-12T20:56:48.435Z,56.58
2018-04-12T20:59:51.932Z,56.99
2018-04-12T21:02:55.289Z,56.77
2018-04-12T21:05:58.667Z,57.79
2018-04-12T21:09:02.054Z,58.24
2018-04-12T21:12:05.361Z,58.73
2018-04-12T21:15:09.098Z,58.97
2018-04-12T21:18:12.375Z,59.08
2018-04-12T21:21:15.759Z,59.19
2018-04-12T21:24:19.072Z,59.18
2018-04-12T21:27:22.582Z,59.86
2018-04-12T21:30:25.957Z,60.35
2018-04-12T21:33:30.921Z,60.18
2018-04-12T21:36:34.207Z,60.93
2018-04-12T21:39:37.613Z,61.04
2018-04-12T21:42:41.471Z,60.90
2018-04-12T21:45:44.732Z,61.47
2018-04-12T21:48:48.175Z,61.33
2018-04-12T21:51:51.584Z,61.45
2018-04-12T21:54:54.936Z,61.63
2018-04-12T21:57:58.324Z,61.57
2018-04-12T22:01:01.707Z,61.08
2018-04-12T22:04:05.004Z,62.22
2018-04-12T22:07:08.308Z,62.34
2018-04-12T22:10:11.669Z,62.77
2018-04-12T22:13:15.003Z,63.50
2018-04-12T22:16:18.298Z,62.75
2018-04-12T22:19:21.792Z,63.42
2018-04-12T22:22:25.104Z,63.86
2018-04-12T22:25:28.420Z,64.59
2018-04-12T22:28:31.808Z,64.36
2018-04-12T22:31:35.216Z,64.14
2018-04-12T22:34:38.506Z,63.65
2018-04-12T22:37:41.908Z,64.47
2018-04-12T22:40:45.192Z,64.68
2018-04-12T22:43:48.493Z,65.82
2018-04-12T22:46:51.885Z,65.41
2018-04-12T22:49:55.173Z,65.58
2018-04-12T22:52:58.461Z,65.45
2018-04-12T22:56:01.834Z,65.74
2018-04-12T22:59:05.104Z,65.80
2018-04-12T23:02:08.463Z,65.95
2018-04-12T23:05:11.674Z,66.29
2018-04-12T23:08:15.100Z,66.77
2018-04-12T23:11:18.443Z,66.82
2018-04-12T23:14:22.661Z,67.55
2018-04-12T23:17:25.896Z,67.61
2018-04-12T23:20:29.273Z,67.93
2018-04-12T23:23:32.637Z,67.69
2018-04-12T23:26:35.972Z,67.82
2018-04-12T23:29:39.189Z,68.18
2018-04-12T23:32:44.436Z,68.87
2018-04-12T23:35:47.798Z,69.11
2018-04-12T23:38:52.019Z,69.29
2018-04-12T23:41:55.415Z,69.57
2018-04-12T23:44:58.655Z,69.26
2018-04-12T23:48:02.005Z,69.28
2018-04-12T23:51:05.226Z,69.41
2018-04-12T23:54:08.608Z,69.39
2018-04-12T23:57:11.914Z,69.70
